sensor_id;sensor_type;location;lat;lon;timestamp;pressure;altitude;pressure_sealevel;temperature;humidity
54236;BME280;40151;43.606;1.472;2023-07-30T00:00:38;99598.81;;;29.78;48.29
54236;BME280;40151;43.606;1.472;2023-07-30T00:03:04;99595.56;;;29.74;48.10
54236;BME280;40151;43.606;1.472;2023-07-30T00:05:29;99590.19;;;29.74;47.92
54236;BME280;40151;43.606;1.472;2023-07-30T00:07:55;99586.81;;;29.72;48.05
54236;BME280;40151;43.606;1.472;2023-07-30T00:10:20;99593.88;;;29.73;48.01
54236;BME280;40151;43.606;1.472;2023-07-30T00:12:46;99589.38;;;29.74;47.97
54236;BME280;40151;43.606;1.472;2023-07-30T00:15:13;99592.19;;;29.72;47.88
54236;BME280;40151;43.606;1.472;2023-07-30T00:17:39;99590.50;;;29.71;47.91
54236;BME280;40151;43.606;1.472;2023-07-30T00:20:06;99593.19;;;29.71;48.16
54236;BME280;40151;43.606;1.472;2023-07-30T00:22:31;99594.19;;;29.70;48.21
54236;BME280;40151;43.606;1.472;2023-07-30T00:24:57;99589.97;;;29.68;47.95
54236;BME280;40151;43.606;1.472;2023-07-30T00:27:22;99585.41;;;29.68;48.05
54236;BME280;40151;43.606;1.472;2023-07-30T00:29:48;99595.47;;;29.66;47.90
54236;BME280;40151;43.606;1.472;2023-07-30T00:32:13;99589.41;;;29.64;47.89
54236;BME280;40151;43.606;1.472;2023-07-30T00:34:41;99593.06;;;29.63;48.01
54236;BME280;40151;43.606;1.472;2023-07-30T00:37:06;99586.88;;;29.63;48.08
54236;BME280;40151;43.606;1.472;2023-07-30T00:39:31;99589.69;;;29.61;47.96
54236;BME280;40151;43.606;1.472;2023-07-30T00:41:57;99589.69;;;29.61;48.00
54236;BME280;40151;43.606;1.472;2023-07-30T00:44:22;99593.38;;;29.60;47.72
54236;BME280;40151;43.606;1.472;2023-07-30T00:46:48;99600.44;;;29.61;48.08
54236;BME280;40151;43.606;1.472;2023-07-30T00:49:14;99596.75;;;29.62;47.82
54236;BME280;40151;43.606;1.472;2023-07-30T00:51:40;99596.91;;;29.60;47.71
54236;BME280;40151;43.606;1.472;2023-07-30T00:54:06;99591.69;;;29.59;47.93
54236;BME280;40151;43.606;1.472;2023-07-30T00:56:32;99603.44;;;29.58;47.79
54236;BME280;40151;43.606;1.472;2023-07-30T00:58:57;99597.34;;;29.56;47.84
54236;BME280;40151;43.606;1.472;2023-07-30T01:01:23;99595.53;;;29.56;47.97
54236;BME280;40151;43.606;1.472;2023-07-30T01:03:49;99604.41;;;29.57;47.87
54236;BME280;40151;43.606;1.472;2023-07-30T01:06:15;99601.03;;;29.55;48.04
54236;BME280;40151;43.606;1.472;2023-07-30T01:08:40;99598.34;;;29.55;48.00
54236;BME280;40151;43.606;1.472;2023-07-30T01:11:07;99601.03;;;29.55;47.82
54236;BME280;40151;43.606;1.472;2023-07-30T01:13:35;99609.97;;;29.55;48.01
54236;BME280;40151;43.606;1.472;2023-07-30T01:16:01;99604.88;;;29.52;47.84
54236;BME280;40151;43.606;1.472;2023-07-30T01:18:28;99607.56;;;29.52;48.18
54236;BME280;40151;43.606;1.472;2023-07-30T01:20:56;99603.31;;;29.50;47.97
54236;BME280;40151;43.606;1.472;2023-07-30T01:23:22;99605.00;;;29.51;47.65
54236;BME280;40151;43.606;1.472;2023-07-30T01:25:59;99612.06;;;29.52;48.04
54236;BME280;40151;43.606;1.472;2023-07-30T01:28:27;99603.31;;;29.50;47.92
54236;BME280;40151;43.606;1.472;2023-07-30T01:30:53;99612.38;;;29.48;47.88
54236;BME280;40151;43.606;1.472;2023-07-30T01:33:20;99612.47;;;29.47;47.91
54236;BME280;40151;43.606;1.472;2023-07-30T01:35:45;99613.34;;;29.47;47.76
54236;BME280;40151;43.606;1.472;2023-07-30T01:38:11;99619.72;;;29.46;47.88
54236;BME280;40151;43.606;1.472;2023-07-30T01:40:37;99616.19;;;29.46;48.03
54236;BME280;40151;43.606;1.472;2023-07-30T01:43:03;99616.31;;;29.44;47.91
54236;BME280;40151;43.606;1.472;2023-07-30T01:45:28;99612.06;;;29.42;47.78
54236;BME280;40151;43.606;1.472;2023-07-30T01:47:54;99610.09;;;29.44;47.82
54236;BME280;40151;43.606;1.472;2023-07-30T01:50:19;99609.25;;;29.43;47.94
54236;BME280;40151;43.606;1.472;2023-07-30T01:52:44;99610.94;;;29.44;48.04
54236;BME280;40151;43.606;1.472;2023-07-30T01:55:10;99609.25;;;29.43;47.74
54236;BME280;40151;43.606;1.472;2023-07-30T01:57:35;99615.91;;;29.39;47.95
54236;BME280;40151;43.606;1.472;2023-07-30T02:00:01;99614.06;;;29.40;47.70
54236;BME280;40151;43.606;1.472;2023-07-30T02:02:26;99610.69;;;29.38;47.71
54236;BME280;40151;43.606;1.472;2023-07-30T02:04:51;99607.00;;;29.39;47.65
54236;BME280;40151;43.606;1.472;2023-07-30T02:07:17;99605.16;;;29.39;47.88
54236;BME280;40151;43.606;1.472;2023-07-30T02:09:43;99608.16;;;29.36;47.75
54236;BME280;40151;43.606;1.472;2023-07-30T02:12:08;99610.09;;;29.34;47.64
54236;BME280;40151;43.606;1.472;2023-07-30T02:14:34;99615.47;;;29.34;47.76
54236;BME280;40151;43.606;1.472;2023-07-30T02:16:59;99616.34;;;29.34;47.79
54236;BME280;40151;43.606;1.472;2023-07-30T02:19:24;99615.22;;;29.37;47.69
54236;BME280;40151;43.606;1.472;2023-07-30T02:21:50;99614.53;;;29.35;47.59
54236;BME280;40151;43.606;1.472;2023-07-30T02:24:15;99604.03;;;29.32;47.69
54236;BME280;40151;43.606;1.472;2023-07-30T02:26:40;99603.03;;;29.33;47.62
54236;BME280;40151;43.606;1.472;2023-07-30T02:29:06;99611.09;;;29.33;47.65
54236;BME280;40151;43.606;1.472;2023-07-30T02:31:32;99606.72;;;29.32;47.52
54236;BME280;40151;43.606;1.472;2023-07-30T02:33:58;99610.41;;;29.31;47.78
54236;BME280;40151;43.606;1.472;2023-07-30T02:36:24;99610.41;;;29.31;47.55
54236;BME280;40151;43.606;1.472;2023-07-30T02:38:49;99616.78;;;29.30;47.69
54236;BME280;40151;43.606;1.472;2023-07-30T02:41:16;99619.75;;;29.27;47.73
54236;BME280;40151;43.606;1.472;2023-07-30T02:43:42;99620.59;;;29.27;47.53
54236;BME280;40151;43.606;1.472;2023-07-30T02:46:07;99623.28;;;29.27;47.57
54236;BME280;40151;43.606;1.472;2023-07-30T02:48:33;99615.50;;;29.24;47.48
54236;BME280;40151;43.606;1.472;2023-07-30T02:50:58;99617.38;;;29.24;47.70
54236;BME280;40151;43.606;1.472;2023-07-30T02:53:23;99620.06;;;29.24;47.54
54236;BME280;40151;43.606;1.472;2023-07-30T02:55:49;99625.44;;;29.24;47.49
54236;BME280;40151;43.606;1.472;2023-07-30T02:58:14;99622.88;;;29.22;47.71
54236;BME280;40151;43.606;1.472;2023-07-30T03:00:40;99621.19;;;29.21;47.81
54236;BME280;40151;43.606;1.472;2023-07-30T03:03:05;99620.31;;;29.20;47.84
54236;BME280;40151;43.606;1.472;2023-07-30T03:05:31;99621.31;;;29.19;47.58
54236;BME280;40151;43.606;1.472;2023-07-30T03:07:56;99631.06;;;29.20;47.56
54236;BME280;40151;43.606;1.472;2023-07-30T03:10:21;99637.44;;;29.19;47.54
54236;BME280;40151;43.606;1.472;2023-07-30T03:12:47;99629.53;;;29.18;47.50
54236;BME280;40151;43.606;1.472;2023-07-30T03:15:12;99632.06;;;29.19;47.42
54236;BME280;40151;43.606;1.472;2023-07-30T03:17:38;99636.75;;;29.17;47.64
54236;BME280;40151;43.606;1.472;2023-07-30T03:20:03;99637.03;;;29.14;47.60
54236;BME280;40151;43.606;1.472;2023-07-30T03:22:29;99637.03;;;29.14;47.63
54236;BME280;40151;43.606;1.472;2023-07-30T03:24:55;99637.31;;;29.11;47.47
54236;BME280;40151;43.606;1.472;2023-07-30T03:27:20;99643.41;;;29.13;47.48
54236;BME280;40151;43.606;1.472;2023-07-30T03:29:45;99643.53;;;29.12;47.86
54236;BME280;40151;43.606;1.472;2023-07-30T03:32:11;99650.03;;;29.09;47.84
54236;BME280;40151;43.606;1.472;2023-07-30T03:34:36;99642.97;;;29.08;47.90
54236;BME280;40151;43.606;1.472;2023-07-30T03:37:02;99642.16;;;29.07;47.39
54236;BME280;40151;43.606;1.472;2023-07-30T03:39:27;99648.34;;;29.08;47.53
54236;BME280;40151;43.606;1.472;2023-07-30T03:41:52;99653.03;;;29.06;47.73
54236;BME280;40151;43.606;1.472;2023-07-30T03:44:18;99650.59;;;29.03;47.80
54236;BME280;40151;43.606;1.472;2023-07-30T03:46:44;99649.78;;;29.02;47.86
54236;BME280;40151;43.606;1.472;2023-07-30T03:49:09;99660.53;;;29.02;47.60
54236;BME280;40151;43.606;1.472;2023-07-30T03:51:34;99662.22;;;29.03;47.81
54236;BME280;40151;43.606;1.472;2023-07-30T03:54:00;99658.66;;;29.03;47.67
54236;BME280;40151;43.606;1.472;2023-07-30T03:56:26;99662.34;;;29.02;47.85
54236;BME280;40151;43.606;1.472;2023-07-30T03:58:51;99657.97;;;29.01;47.80
54236;BME280;40151;43.606;1.472;2023-07-30T04:01:16;99654.59;;;28.99;47.76
54236;BME280;40151;43.606;1.472;2023-07-30T04:03:42;99663.59;;;28.98;47.42
54236;BME280;40151;43.606;1.472;2023-07-30T04:06:07;99663.59;;;28.98;47.57
54236;BME280;40151;43.606;1.472;2023-07-30T04:08:33;99661.91;;;28.97;47.70
54236;BME280;40151;43.606;1.472;2023-07-30T04:10:58;99673.66;;;28.96;47.45
54236;BME280;40151;43.606;1.472;2023-07-30T04:13:23;99673.78;;;28.94;47.95
54236;BME280;40151;43.606;1.472;2023-07-30T04:15:49;99674.78;;;28.93;47.79
54236;BME280;40151;43.606;1.472;2023-07-30T04:18:14;99678.34;;;28.93;47.42
54236;BME280;40151;43.606;1.472;2023-07-30T04:20:39;99673.22;;;28.90;47.62
54236;BME280;40151;43.606;1.472;2023-07-30T04:23:05;99683.28;;;28.88;47.82
54236;BME280;40151;43.606;1.472;2023-07-30T04:25:30;99682.53;;;28.86;47.96
54236;BME280;40151;43.606;1.472;2023-07-30T04:27:56;99684.28;;;28.87;47.80
54236;BME280;40151;43.606;1.472;2023-07-30T04:30:21;99685.22;;;28.86;47.89
54236;BME280;40151;43.606;1.472;2023-07-30T04:32:47;99686.19;;;28.85;47.84
54236;BME280;40151;43.606;1.472;2023-07-30T04:35:12;99693.28;;;28.86;47.92
54236;BME280;40151;43.606;1.472;2023-07-30T04:37:38;99696.25;;;28.83;47.82
54236;BME280;40151;43.606;1.472;2023-07-30T04:40:04;99697.94;;;28.84;47.95
54236;BME280;40151;43.606;1.472;2023-07-30T04:42:29;99694.53;;;28.82;47.74
54236;BME280;40151;43.606;1.472;2023-07-30T04:44:55;99691.88;;;28.82;47.73
54236;BME280;40151;43.606;1.472;2023-07-30T04:47:20;99700.91;;;28.81;47.61
54236;BME280;40151;43.606;1.472;2023-07-30T04:49:45;99699.19;;;28.80;47.75
54236;BME280;40151;43.606;1.472;2023-07-30T04:52:11;99701.19;;;28.78;47.66
54236;BME280;40151;43.606;1.472;2023-07-30T04:54:36;99699.19;;;28.80;47.48
54236;BME280;40151;43.606;1.472;2023-07-30T04:57:03;99701.19;;;28.78;47.66
54236;BME280;40151;43.606;1.472;2023-07-30T04:59:28;99704.84;;;28.77;47.99
54236;BME280;40151;43.606;1.472;2023-07-30T05:01:54;99701.44;;;28.75;47.88
54236;BME280;40151;43.606;1.472;2023-07-30T05:04:19;99704.28;;;28.73;47.85
54236;BME280;40151;43.606;1.472;2023-07-30T05:06:44;99718.84;;;28.71;47.79
54236;BME280;40151;43.606;1.472;2023-07-30T05:09:10;99718.09;;;28.68;47.75
54236;BME280;40151;43.606;1.472;2023-07-30T05:11:37;99721.78;;;28.67;47.85
54236;BME280;40151;43.606;1.472;2023-07-30T05:14:02;99728.00;;;28.68;47.61
54236;BME280;40151;43.606;1.472;2023-07-30T05:16:27;99718.09;;;28.68;47.79
54236;BME280;40151;43.606;1.472;2023-07-30T05:18:53;99718.28;;;28.67;47.70
54236;BME280;40151;43.606;1.472;2023-07-30T05:21:19;99714.03;;;28.64;47.78
54236;BME280;40151;43.606;1.472;2023-07-30T05:23:44;99727.44;;;28.64;48.07
54236;BME280;40151;43.606;1.472;2023-07-30T05:26:09;99720.38;;;28.63;48.16
54236;BME280;40151;43.606;1.472;2023-07-30T05:28:35;99722.22;;;28.63;47.72
54236;BME280;40151;43.606;1.472;2023-07-30T05:31:00;99714.16;;;28.63;47.86
54236;BME280;40151;43.606;1.472;2023-07-30T05:33:26;99727.72;;;28.61;47.70
54236;BME280;40151;43.606;1.472;2023-07-30T05:35:51;99718.66;;;28.62;47.73
54236;BME280;40151;43.606;1.472;2023-07-30T05:38:16;99731.13;;;28.63;48.01
54236;BME280;40151;43.606;1.472;2023-07-30T05:40:42;99727.72;;;28.61;47.92
54236;BME280;40151;43.606;1.472;2023-07-30T05:43:08;99733.06;;;28.61;47.77
54236;BME280;40151;43.606;1.472;2023-07-30T05:45:34;99734.19;;;28.59;47.67
54236;BME280;40151;43.606;1.472;2023-07-30T05:48:00;99732.50;;;28.58;48.14
54236;BME280;40151;43.606;1.472;2023-07-30T05:50:25;99729.94;;;28.56;47.68
54236;BME280;40151;43.606;1.472;2023-07-30T05:52:51;99731.66;;;28.57;48.12
54236;BME280;40151;43.606;1.472;2023-07-30T05:55:16;99740.69;;;28.56;47.86
54236;BME280;40151;43.606;1.472;2023-07-30T05:57:42;99734.63;;;28.54;47.63
54236;BME280;40151;43.606;1.472;2023-07-30T06:00:08;99740.97;;;28.53;48.00
54236;BME280;40151;43.606;1.472;2023-07-30T06:02:33;99740.97;;;28.53;48.00
54236;BME280;40151;43.606;1.472;2023-07-30T06:04:59;99736.72;;;28.50;48.03
54236;BME280;40151;43.606;1.472;2023-07-30T06:07:24;99738.56;;;28.50;47.97
54236;BME280;40151;43.606;1.472;2023-07-30T06:09:49;99744.91;;;28.49;48.20
54236;BME280;40151;43.606;1.472;2023-07-30T06:12:15;99744.66;;;28.52;48.21
54236;BME280;40151;43.606;1.472;2023-07-30T06:14:40;99743.91;;;28.50;48.01
54236;BME280;40151;43.606;1.472;2023-07-30T06:17:06;99756.50;;;28.49;48.08
54236;BME280;40151;43.606;1.472;2023-07-30T06:19:32;99754.78;;;28.48;47.72
54236;BME280;40151;43.606;1.472;2023-07-30T06:21:57;99762.72;;;28.50;47.87
54236;BME280;40151;43.606;1.472;2023-07-30T06:24:22;99766.38;;;28.49;47.78
54236;BME280;40151;43.606;1.472;2023-07-30T06:26:48;99763.81;;;28.47;48.03
54236;BME280;40151;43.606;1.472;2023-07-30T06:29:13;99765.69;;;28.47;47.84
54236;BME280;40151;43.606;1.472;2023-07-30T06:31:38;99771.31;;;28.44;48.03
54236;BME280;40151;43.606;1.472;2023-07-30T06:34:04;99779.34;;;28.44;47.85
54236;BME280;40151;43.606;1.472;2023-07-30T06:36:29;99782.78;;;28.46;47.93
54236;BME280;40151;43.606;1.472;2023-07-30T06:38:55;99781.34;;;28.41;48.17
54236;BME280;40151;43.606;1.472;2023-07-30T06:41:21;99777.66;;;28.43;47.74
54236;BME280;40151;43.606;1.472;2023-07-30T06:43:46;99779.66;;;28.40;47.83
54236;BME280;40151;43.606;1.472;2023-07-30T06:46:12;99788.41;;;28.43;47.85
54236;BME280;40151;43.606;1.472;2023-07-30T06:48:37;99792.06;;;28.41;47.68
54236;BME280;40151;43.606;1.472;2023-07-30T06:51:06;99787.53;;;28.42;47.74
54236;BME280;40151;43.606;1.472;2023-07-30T06:53:31;99783.03;;;28.43;48.07
54236;BME280;40151;43.606;1.472;2023-07-30T06:55:57;99788.41;;;28.43;47.99
54236;BME280;40151;43.606;1.472;2023-07-30T06:58:22;99780.47;;;28.41;47.81
54236;BME280;40151;43.606;1.472;2023-07-30T07:00:47;99792.91;;;28.42;47.84
54236;BME280;40151;43.606;1.472;2023-07-30T07:03:13;99788.41;;;28.43;47.73
54236;BME280;40151;43.606;1.472;2023-07-30T07:05:38;99777.41;;;28.46;47.86
54236;BME280;40151;43.606;1.472;2023-07-30T07:08:04;99789.53;;;28.50;48.03
54236;BME280;40151;43.606;1.472;2023-07-30T07:10:29;99794.09;;;28.49;47.73
54236;BME280;40151;43.606;1.472;2023-07-30T07:12:54;99795.91;;;28.49;47.91
54236;BME280;40151;43.606;1.472;2023-07-30T07:15:20;99799.59;;;28.48;47.73
54236;BME280;40151;43.606;1.472;2023-07-30T07:17:45;99790.53;;;28.49;47.66
54236;BME280;40151;43.606;1.472;2023-07-30T07:20:11;99791.25;;;28.51;47.90
54236;BME280;40151;43.606;1.472;2023-07-30T07:22:36;99789.00;;;28.56;47.50
54236;BME280;40151;43.606;1.472;2023-07-30T07:25:03;99794.38;;;28.56;47.40
54236;BME280;40151;43.606;1.472;2023-07-30T07:27:28;99785.50;;;28.56;47.49
54236;BME280;40151;43.606;1.472;2023-07-30T07:29:53;99782.94;;;28.54;47.53
54236;BME280;40151;43.606;1.472;2023-07-30T07:32:19;99784.75;;;28.53;47.53
54236;BME280;40151;43.606;1.472;2023-07-30T07:34:48;99794.38;;;28.56;47.74
54236;BME280;40151;43.606;1.472;2023-07-30T07:37:14;99790.44;;;28.60;47.46
54236;BME280;40151;43.606;1.472;2023-07-30T07:39:44;99798.50;;;28.60;47.64
54236;BME280;40151;43.606;1.472;2023-07-30T07:42:11;99799.47;;;28.59;47.54
54236;BME280;40151;43.606;1.472;2023-07-30T07:44:36;99798.25;;;28.63;47.39
54236;BME280;40151;43.606;1.472;2023-07-30T07:47:02;99797.25;;;28.64;47.33
54236;BME280;40151;43.606;1.472;2023-07-30T07:49:27;99793.56;;;28.65;47.38
54236;BME280;40151;43.606;1.472;2023-07-30T07:51:53;99802.31;;;28.67;47.69
54236;BME280;40151;43.606;1.472;2023-07-30T07:54:18;99804.03;;;28.68;47.38
54236;BME280;40151;43.606;1.472;2023-07-30T07:56:43;99805.75;;;28.70;47.55
54236;BME280;40151;43.606;1.472;2023-07-30T07:59:09;99823.56;;;28.71;47.53
54236;BME280;40151;43.606;1.472;2023-07-30T08:01:34;99818.19;;;28.71;47.36
54236;BME280;40151;43.606;1.472;2023-07-30T08:04:00;99823.56;;;28.71;47.34
54236;BME280;40151;43.606;1.472;2023-07-30T08:06:25;99819.88;;;28.72;47.45
54236;BME280;40151;43.606;1.472;2023-07-30T08:08:50;99825.94;;;28.74;47.50
54236;BME280;40151;43.606;1.472;2023-07-30T08:11:16;99825.81;;;28.75;47.63
54236;BME280;40151;43.606;1.472;2023-07-30T08:13:41;99820.44;;;28.75;47.63
54236;BME280;40151;43.606;1.472;2023-07-30T08:16:07;99816.78;;;28.76;47.21
54236;BME280;40151;43.606;1.472;2023-07-30T08:18:32;99819.31;;;28.78;47.49
54236;BME280;40151;43.606;1.472;2023-07-30T08:20:58;99830.06;;;28.78;47.38
54236;BME280;40151;43.606;1.472;2023-07-30T08:23:23;99829.22;;;28.77;47.32
54236;BME280;40151;43.606;1.472;2023-07-30T08:25:49;99825.81;;;28.75;47.33
54236;BME280;40151;43.606;1.472;2023-07-30T08:28:15;99830.31;;;28.75;47.28
54236;BME280;40151;43.606;1.472;2023-07-30T08:30:40;99829.22;;;28.77;47.33
54236;BME280;40151;43.606;1.472;2023-07-30T08:33:06;99823.00;;;28.77;47.38
54236;BME280;40151;43.606;1.472;2023-07-30T08:35:31;99830.19;;;28.76;47.05
54236;BME280;40151;43.606;1.472;2023-07-30T08:37:57;99828.38;;;28.77;47.45
54236;BME280;40151;43.606;1.472;2023-07-30T08:40:22;99825.69;;;28.77;47.20
54236;BME280;40151;43.606;1.472;2023-07-30T08:42:51;99822.88;;;28.78;47.27
54236;BME280;40151;43.606;1.472;2023-07-30T08:45:17;99831.75;;;28.79;47.15
54236;BME280;40151;43.606;1.472;2023-07-30T08:47:43;99829.06;;;28.79;47.58
54236;BME280;40151;43.606;1.472;2023-07-30T08:50:09;99829.06;;;28.79;47.48
54236;BME280;40151;43.606;1.472;2023-07-30T08:52:35;99826.41;;;28.79;47.20
54236;BME280;40151;43.606;1.472;2023-07-30T08:55:02;99821.88;;;28.79;47.12
54236;BME280;40151;43.606;1.472;2023-07-30T08:57:31;99832.63;;;28.79;46.99
54236;BME280;40151;43.606;1.472;2023-07-30T09:00:05;99817.34;;;28.80;47.29
54236;BME280;40151;43.606;1.472;2023-07-30T09:02:51;99822.72;;;28.80;47.29
54236;BME280;40151;43.606;1.472;2023-07-30T09:05:19;99831.75;;;28.79;47.00
54236;BME280;40151;43.606;1.472;2023-07-30T09:07:45;99835.19;;;28.81;47.20
54236;BME280;40151;43.606;1.472;2023-07-30T09:10:10;99836.88;;;28.82;47.14
54236;BME280;40151;43.606;1.472;2023-07-30T09:12:36;99837.72;;;28.83;47.23
54236;BME280;40151;43.606;1.472;2023-07-30T09:15:02;99841.25;;;28.83;47.36
54236;BME280;40151;43.606;1.472;2023-07-30T09:17:30;99834.03;;;28.84;47.27
54236;BME280;40151;43.606;1.472;2023-07-30T09:19:55;99837.56;;;28.84;47.18
54236;BME280;40151;43.606;1.472;2023-07-30T09:22:34;99838.44;;;28.85;46.92
54236;BME280;40151;43.606;1.472;2023-07-30T09:25:04;99825.84;;;28.85;46.86
54236;BME280;40151;43.606;1.472;2023-07-30T09:27:31;99826.72;;;28.86;47.29
54236;BME280;40151;43.606;1.472;2023-07-30T09:29:58;99826.59;;;28.87;46.95
54236;BME280;40151;43.606;1.472;2023-07-30T09:32:27;99829.28;;;28.87;46.90
54236;BME280;40151;43.606;1.472;2023-07-30T09:34:53;99831.00;;;28.88;47.00
54236;BME280;40151;43.606;1.472;2023-07-30T09:37:19;99829.28;;;28.87;47.25
54236;BME280;40151;43.606;1.472;2023-07-30T09:39:47;99822.06;;;28.88;46.77
54236;BME280;40151;43.606;1.472;2023-07-30T09:42:13;99827.31;;;28.89;47.19
54236;BME280;40151;43.606;1.472;2023-07-30T09:44:38;99829.28;;;28.87;46.55
54236;BME280;40151;43.606;1.472;2023-07-30T09:47:08;99835.25;;;28.91;46.81
54236;BME280;40151;43.606;1.472;2023-07-30T09:49:35;99827.31;;;28.89;47.03
54236;BME280;40151;43.606;1.472;2023-07-30T09:52:01;99836.06;;;28.91;46.84
54236;BME280;40151;43.606;1.472;2023-07-30T09:54:28;99825.31;;;28.91;46.96
54236;BME280;40151;43.606;1.472;2023-07-30T09:56:54;99829.88;;;28.91;47.07
54236;BME280;40151;43.606;1.472;2023-07-30T09:59:20;99833.38;;;28.91;46.71
54236;BME280;40151;43.606;1.472;2023-07-30T10:01:49;99835.06;;;28.92;46.92
54236;BME280;40151;43.606;1.472;2023-07-30T10:04:17;99835.94;;;28.93;47.10
54236;BME280;40151;43.606;1.472;2023-07-30T10:06:55;99828.75;;;28.93;46.70
54236;BME280;40151;43.606;1.472;2023-07-30T10:09:23;99826.88;;;28.94;47.00
54236;BME280;40151;43.606;1.472;2023-07-30T10:11:52;99828.75;;;28.93;47.11
54236;BME280;40151;43.606;1.472;2023-07-30T10:14:22;99830.31;;;28.96;46.67
54236;BME280;40151;43.606;1.472;2023-07-30T10:16:59;99833.81;;;28.97;46.96
54236;BME280;40151;43.606;1.472;2023-07-30T10:19:26;99829.31;;;28.97;47.04
54236;BME280;40151;43.606;1.472;2023-07-30T10:21:57;99829.31;;;28.97;47.09
54236;BME280;40151;43.606;1.472;2023-07-30T10:24:25;99836.38;;;28.98;46.71
54236;BME280;40151;43.606;1.472;2023-07-30T10:26:52;99831.88;;;28.99;46.67
54236;BME280;40151;43.606;1.472;2023-07-30T10:29:19;99837.25;;;28.99;46.69
54236;BME280;40151;43.606;1.472;2023-07-30T10:31:54;99827.31;;;28.99;46.69
54236;BME280;40151;43.606;1.472;2023-07-30T10:34:21;99841.47;;;29.01;46.77
54236;BME280;40151;43.606;1.472;2023-07-30T10:36:49;99836.94;;;29.02;46.97
54236;BME280;40151;43.606;1.472;2023-07-30T10:39:28;99827.91;;;29.03;47.03
54236;BME280;40151;43.606;1.472;2023-07-30T10:41:57;99838.66;;;29.03;46.66
54236;BME280;40151;43.606;1.472;2023-07-30T10:44:28;99831.31;;;29.05;46.93
54236;BME280;40151;43.606;1.472;2023-07-30T10:46:57;99836.69;;;29.05;46.71
54236;BME280;40151;43.606;1.472;2023-07-30T10:49:22;99832.16;;;29.05;46.72
54236;BME280;40151;43.606;1.472;2023-07-30T10:51:48;99836.41;;;29.08;46.83
54236;BME280;40151;43.606;1.472;2023-07-30T10:54:14;99831.03;;;29.08;46.91
54236;BME280;40151;43.606;1.472;2023-07-30T10:56:41;99823.66;;;29.10;46.83
54236;BME280;40151;43.606;1.472;2023-07-30T10:59:07;99829.03;;;29.10;46.60
54236;BME280;40151;43.606;1.472;2023-07-30T11:01:41;99830.75;;;29.11;46.78
54236;BME280;40151;43.606;1.472;2023-07-30T11:04:24;99826.22;;;29.12;46.77
54236;BME280;40151;43.606;1.472;2023-07-30T11:06:51;99827.78;;;29.14;46.61
54236;BME280;40151;43.606;1.472;2023-07-30T11:09:20;99819.72;;;29.14;46.66
54236;BME280;40151;43.606;1.472;2023-07-30T11:11:47;99830.47;;;29.14;46.59
54236;BME280;40151;43.606;1.472;2023-07-30T11:14:20;99833.03;;;29.16;46.84
54236;BME280;40151;43.606;1.472;2023-07-30T11:16:59;99825.81;;;29.16;46.93
54236;BME280;40151;43.606;1.472;2023-07-30T11:19:26;99834.59;;;29.18;46.62
54236;BME280;40151;43.606;1.472;2023-07-30T11:21:53;99819.28;;;29.19;46.51
54236;BME280;40151;43.606;1.472;2023-07-30T11:24:22;99825.53;;;29.19;46.71
54236;BME280;40151;43.606;1.472;2023-07-30T11:27:00;99824.53;;;29.20;46.36
54236;BME280;40151;43.606;1.472;2023-07-30T11:29:26;99826.22;;;29.21;46.69
54236;BME280;40151;43.606;1.472;2023-07-30T11:31:56;99827.97;;;29.23;46.38
54236;BME280;40151;43.606;1.472;2023-07-30T11:34:21;99819.91;;;29.23;46.81
54236;BME280;40151;43.606;1.472;2023-07-30T11:36:47;99819.72;;;29.24;46.74
54236;BME280;40151;43.606;1.472;2023-07-30T11:39:13;99804.47;;;29.25;46.71
54236;BME280;40151;43.606;1.472;2023-07-30T11:41:39;99814.22;;;29.26;46.51
54236;BME280;40151;43.606;1.472;2023-07-30T11:44:04;99810.53;;;29.27;46.55
54236;BME280;40151;43.606;1.472;2023-07-30T11:46:30;99794.41;;;29.27;46.67
54236;BME280;40151;43.606;1.472;2023-07-30T11:49:15;99799.66;;;29.28;46.41
54236;BME280;40151;43.606;1.472;2023-07-30T11:51:42;99786.22;;;29.28;46.38
54236;BME280;40151;43.606;1.472;2023-07-30T11:54:17;99796.84;;;29.30;46.47
54236;BME280;40151;43.606;1.472;2023-07-30T11:56:43;99808.41;;;29.30;46.55
54236;BME280;40151;43.606;1.472;2023-07-30T11:59:08;99798.53;;;29.31;46.75
54236;BME280;40151;43.606;1.472;2023-07-30T12:01:36;99802.09;;;29.31;46.67
54236;BME280;40151;43.606;1.472;2023-07-30T12:04:06;99797.41;;;29.33;46.56
54236;BME280;40151;43.606;1.472;2023-07-30T12:06:45;99798.22;;;29.34;46.45
54236;BME280;40151;43.606;1.472;2023-07-30T12:09:13;99803.59;;;29.34;46.66
54236;BME280;40151;43.606;1.472;2023-07-30T12:11:52;99796.28;;;29.36;46.49
54236;BME280;40151;43.606;1.472;2023-07-30T12:14:18;99793.59;;;29.36;46.55
54236;BME280;40151;43.606;1.472;2023-07-30T12:16:44;99797.97;;;29.37;46.66
54236;BME280;40151;43.606;1.472;2023-07-30T12:19:10;99799.66;;;29.38;46.66
54236;BME280;40151;43.606;1.472;2023-07-30T12:21:35;99798.66;;;29.39;46.40
54236;BME280;40151;43.606;1.472;2023-07-30T12:24:01;99792.31;;;29.40;46.47
54236;BME280;40151;43.606;1.472;2023-07-30T12:26:27;99786.94;;;29.40;46.48
54236;BME280;40151;43.606;1.472;2023-07-30T12:28:52;99795.72;;;29.42;46.68
54236;BME280;40151;43.606;1.472;2023-07-30T12:31:18;99791.16;;;29.43;46.66
54236;BME280;40151;43.606;1.472;2023-07-30T12:33:43;99791.16;;;29.43;46.49
54236;BME280;40151;43.606;1.472;2023-07-30T12:36:09;99786.66;;;29.43;46.49
54236;BME280;40151;43.606;1.472;2023-07-30T12:38:34;99773.91;;;29.45;46.65
54236;BME280;40151;43.606;1.472;2023-07-30T12:40:59;99775.63;;;29.46;46.41
54236;BME280;40151;43.606;1.472;2023-07-30T12:43:25;99776.47;;;29.47;46.43
54236;BME280;40151;43.606;1.472;2023-07-30T12:45:51;99779.03;;;29.48;46.70
54236;BME280;40151;43.606;1.472;2023-07-30T12:48:16;99775.34;;;29.50;46.55
54236;BME280;40151;43.606;1.472;2023-07-30T12:50:41;99778.75;;;29.52;46.66
54236;BME280;40151;43.606;1.472;2023-07-30T12:53:07;99775.22;;;29.51;46.57
54236;BME280;40151;43.606;1.472;2023-07-30T12:55:32;99768.84;;;29.52;46.68